createdAt,value
2023-08-03T00:00:34.337Z,7.07
2023-08-03T00:03:01.529Z,6.07
2023-08-03T00:05:31.193Z,5.63
2023-08-03T00:07:58.061Z,6.57
2023-08-03T00:10:24.940Z,4.63
2023-08-03T00:12:54.986Z,6.20
2023-08-03T00:15:22.012Z,5.67
2023-08-03T00:17:49.039Z,5.07
2023-08-03T00:20:16.296Z,3.97
2023-08-03T00:22:47.776Z,7.77
2023-08-03T00:25:14.977Z,5.97
2023-08-03T00:27:42.015Z,6.13
2023-08-03T00:30:09.151Z,5.20
2023-08-03T00:32:36.286Z,5.23
2023-08-03T00:35:03.202Z,5.97
2023-08-03T00:37:30.765Z,4.63
2023-08-03T00:39:57.762Z,5.30
2023-08-03T00:42:24.819Z,6.37
2023-08-03T00:44:51.776Z,5.23
2023-08-03T00:47:18.723Z,4.60
2023-08-03T00:49:46.010Z,9.47
2023-08-03T00:52:12.838Z,6.13
2023-08-03T00:54:40.472Z,8.03
2023-08-03T00:57:10.149Z,9.70
2023-08-03T00:59:37.164Z,5.57
2023-08-03T01:02:04.763Z,8.50
2023-08-03T01:04:31.571Z,7.33
2023-08-03T01:06:58.890Z,6.13
2023-08-03T01:09:25.736Z,6.00
2023-08-03T01:11:52.915Z,7.23
2023-08-03T01:14:19.907Z,7.43
2023-08-03T01:16:46.984Z,6.67
2023-08-03T01:19:15.067Z,7.57
2023-08-03T01:21:44.109Z,5.70
2023-08-03T01:24:11.999Z,3.90
2023-08-03T01:26:39.388Z,5.67
2023-08-03T01:29:06.812Z,5.63
2023-08-03T01:31:35.106Z,9.33
2023-08-03T01:34:02.638Z,8.83
2023-08-03T01:36:29.840Z,6.07
2023-08-03T01:39:10.142Z,6.47
2023-08-03T01:41:39.839Z,6.43
2023-08-03T01:44:23.350Z,6.47
2023-08-03T01:46:51.408Z,4.63
2023-08-03T01:49:18.920Z,5.73
2023-08-03T01:51:46.233Z,5.33
2023-08-03T01:54:14.045Z,6.80
2023-08-03T01:56:41.050Z,5.70
2023-08-03T01:59:08.009Z,9.70
2023-08-03T02:01:35.232Z,6.07
2023-08-03T02:04:02.272Z,9.07
2023-08-03T02:06:29.301Z,6.90
2023-08-03T02:08:56.125Z,7.87
2023-08-03T02:11:23.117Z,8.33
2023-08-03T02:13:50.280Z,7.10
2023-08-03T02:16:24.690Z,10.67
2023-08-03T02:18:53.905Z,10.73
2023-08-03T02:21:20.761Z,6.50
2023-08-03T02:23:47.672Z,7.43
2023-08-03T02:26:14.755Z,13.13
2023-08-03T02:28:41.736Z,10.97
2023-08-03T02:31:08.626Z,9.77
2023-08-03T02:33:35.656Z,11.30
2023-08-03T02:36:02.728Z,8.70
2023-08-03T02:38:29.681Z,9.90
2023-08-03T02:40:59.225Z,11.17
2023-08-03T02:43:28.644Z,10.00
2023-08-03T02:45:55.922Z,11.27
2023-08-03T02:48:22.921Z,7.10
2023-08-03T02:50:50.041Z,7.53
2023-08-03T02:53:17.061Z,10.60
2023-08-03T02:55:44.127Z,8.93
2023-08-03T02:58:33.180Z,7.27
2023-08-03T03:01:01.677Z,8.37
2023-08-03T03:03:29.090Z,9.40
2023-08-03T03:05:56.393Z,9.00
2023-08-03T03:08:23.432Z,9.17
2023-08-03T03:10:50.383Z,7.70
2023-08-03T03:13:17.247Z,8.00
2023-08-03T03:15:44.134Z,6.47
2023-08-03T03:18:10.933Z,8.50
2023-08-03T03:20:37.882Z,6.97
2023-08-03T03:23:04.944Z,9.43
2023-08-03T03:25:34.061Z,7.43
2023-08-03T03:28:05.960Z,7.83
2023-08-03T03:30:33.538Z,6.43
2023-08-03T03:33:01.171Z,7.33
2023-08-03T03:35:28.296Z,9.30
2023-08-03T03:37:55.402Z,6.03
2023-08-03T03:40:22.448Z,7.20
2023-08-03T03:42:49.310Z,6.20
2023-08-03T03:45:16.387Z,8.57
2023-08-03T03:47:43.535Z,11.40
2023-08-03T03:50:11.087Z,7.43
2023-08-03T03:52:38.400Z,7.80
2023-08-03T03:55:05.839Z,5.07
2023-08-03T03:57:33.477Z,10.80
2023-08-03T04:00:00.399Z,6.07
2023-08-03T04:02:27.539Z,9.37
2023-08-03T04:04:54.765Z,7.47
2023-08-03T04:07:21.764Z,7.67
2023-08-03T04:09:48.851Z,6.70
2023-08-03T04:12:19.656Z,5.30
2023-08-03T04:14:46.789Z,6.83
2023-08-03T04:17:13.816Z,11.47
2023-08-03T04:19:40.994Z,7.00
2023-08-03T04:22:07.906Z,6.30
2023-08-03T04:24:35.127Z,5.43
2023-08-03T04:27:02.233Z,5.13
2023-08-03T04:29:29.309Z,8.47
2023-08-03T04:31:56.368Z,6.93
2023-08-03T04:34:23.448Z,6.33
2023-08-03T04:36:50.367Z,6.77
2023-08-03T04:39:17.309Z,6.87
2023-08-03T04:41:44.932Z,8.80
2023-08-03T04:44:12.331Z,5.27
2023-08-03T04:46:39.519Z,4.20
2023-08-03T04:49:06.546Z,8.43
2023-08-03T04:51:33.562Z,6.53
2023-08-03T04:54:00.703Z,5.23
2023-08-03T04:56:30.420Z,7.80
2023-08-03T04:58:57.485Z,6.33
2023-08-03T05:01:24.512Z,5.50
2023-08-03T05:03:51.548Z,4.03
2023-08-03T05:06:18.734Z,6.27
2023-08-03T05:08:45.730Z,10.93
2023-08-03T05:11:12.702Z,5.40
2023-08-03T05:13:39.865Z,3.23
2023-08-03T05:16:06.867Z,5.93
2023-08-03T05:18:33.682Z,3.57
2023-08-03T05:21:00.720Z,3.83
2023-08-03T05:23:27.663Z,4.03
2023-08-03T05:25:58.832Z,6.30
2023-08-03T05:28:26.678Z,3.03
2023-08-03T05:30:53.771Z,5.50
2023-08-03T05:33:23.137Z,5.13
2023-08-03T05:35:51.373Z,5.27
2023-08-03T05:38:18.789Z,4.73
2023-08-03T05:40:45.821Z,5.17
2023-08-03T05:43:17.331Z,5.70
2023-08-03T05:45:46.041Z,5.87
2023-08-03T05:48:17.870Z,3.27
2023-08-03T05:50:51.104Z,4.97
2023-08-03T05:53:19.608Z,2.87
2023-08-03T05:55:57.857Z,5.87
2023-08-03T05:58:37.693Z,2.73
2023-08-03T06:01:04.686Z,4.17
2023-08-03T06:03:35.925Z,8.90
2023-08-03T06:06:06.306Z,3.67
2023-08-03T06:08:34.429Z,2.20
2023-08-03T06:11:05.874Z,4.83
2023-08-03T06:13:36.702Z,2.47
2023-08-03T06:16:05.869Z,3.77
2023-08-03T06:18:36.201Z,3.10
2023-08-03T06:21:05.892Z,2.33
2023-08-03T06:23:32.945Z,3.17
2023-08-03T06:26:00.810Z,2.77
2023-08-03T06:28:31.150Z,4.80
2023-08-03T06:30:57.989Z,2.73
2023-08-03T06:33:25.098Z,3.17
2023-08-03T06:35:56.385Z,4.27
2023-08-03T06:38:24.166Z,5.27
2023-08-03T06:40:52.124Z,3.43
2023-08-03T06:43:19.242Z,4.40
2023-08-03T06:45:46.772Z,4.60
2023-08-03T06:48:16.262Z,4.23
2023-08-03T06:50:43.595Z,3.83
2023-08-03T06:53:11.674Z,2.27
2023-08-03T06:55:38.512Z,4.77
2023-08-03T06:58:05.665Z,1.93
2023-08-03T07:00:32.645Z,2.60
2023-08-03T07:03:00.249Z,2.00
2023-08-03T07:05:27.328Z,1.40
2023-08-03T07:07:54.220Z,2.33
2023-08-03T07:10:21.126Z,2.27
2023-08-03T07:12:48.570Z,2.33
2023-08-03T07:15:15.436Z,1.60
2023-08-03T07:17:42.407Z,2.10
2023-08-03T07:20:10.353Z,2.10
2023-08-03T07:22:37.661Z,1.00
2023-08-03T07:25:05.427Z,1.93
2023-08-03T07:27:33.251Z,1.50
2023-08-03T07:30:01.045Z,1.50
2023-08-03T07:32:28.384Z,1.73
2023-08-03T07:34:55.587Z,1.60
2023-08-03T07:37:22.736Z,1.73
2023-08-03T07:39:49.535Z,3.80
2023-08-03T07:42:16.475Z,2.13
2023-08-03T07:47:14.617Z,2.87
2023-08-03T07:49:41.849Z,1.60
2023-08-03T07:52:09.197Z,2.07
2023-08-03T07:54:36.260Z,1.40
2023-08-03T07:57:03.181Z,1.67
2023-08-03T07:59:30.281Z,2.13
2023-08-03T08:01:57.431Z,4.23
2023-08-03T08:04:24.656Z,2.63
2023-08-03T08:06:51.754Z,1.67
2023-08-03T08:09:18.798Z,2.47
2023-08-03T08:11:46.155Z,2.83
2023-08-03T08:14:13.293Z,2.80
2023-08-03T08:16:40.422Z,2.30
2023-08-03T08:19:07.450Z,1.37
2023-08-03T08:21:34.476Z,1.17
2023-08-03T08:24:01.711Z,2.50
2023-08-03T08:26:30.173Z,1.90
2023-08-03T08:29:04.483Z,3.83
2023-08-03T08:34:03.762Z,2.70
2023-08-03T08:36:30.786Z,3.37
2023-08-03T08:38:57.817Z,3.20
2023-08-03T08:41:25.836Z,4.60
2023-08-03T08:43:52.948Z,2.50
2023-08-03T08:46:20.388Z,2.40
2023-08-03T08:48:50.684Z,2.33
2023-08-03T08:51:57.038Z,2.13
2023-08-03T09:01:54.947Z,1.23
2023-08-03T09:04:32.352Z,1.37
2023-08-03T09:07:00.873Z,1.17
2023-08-03T09:09:37.845Z,2.83
2023-08-03T09:12:07.829Z,1.33
2023-08-03T09:14:52.412Z,1.20
2023-08-03T09:17:21.484Z,1.20
2023-08-03T09:25:10.041Z,1.43
2023-08-03T09:30:18.433Z,1.33
2023-08-03T09:35:26.952Z,1.60
2023-08-03T09:37:54.940Z,1.60
2023-08-03T09:40:22.394Z,2.57
2023-08-03T09:42:50.530Z,1.10
2023-08-03T09:47:52.715Z,1.63
2023-08-03T09:50:20.428Z,0.63
2023-08-03T09:52:50.364Z,0.73
2023-08-03T09:55:28.478Z,0.67
2023-08-03T09:58:08.333Z,0.90
2023-08-03T10:00:39.643Z,1.30
2023-08-03T10:03:14.329Z,2.90
2023-08-03T10:05:52.568Z,1.33
2023-08-03T10:08:47.104Z,1.00
2023-08-03T10:11:15.196Z,1.10
2023-08-03T10:13:47.992Z,1.00
2023-08-03T10:16:17.300Z,0.87
2023-08-03T10:21:17.167Z,0.80
2023-08-03T10:24:13.169Z,1.93
2023-08-03T10:26:41.758Z,0.77
2023-08-03T10:29:08.833Z,1.03
2023-08-03T10:31:56.108Z,1.07
2023-08-03T10:34:28.027Z,0.77
2023-08-03T10:36:57.539Z,2.80
2023-08-03T10:39:53.038Z,1.63
2023-08-03T10:42:25.347Z,1.50
2023-08-03T10:44:52.792Z,1.00
2023-08-03T10:47:27.058Z,1.20
2023-08-03T10:49:55.772Z,1.40
2023-08-03T10:52:26.217Z,1.30
2023-08-03T10:54:53.611Z,0.90
2023-08-03T10:57:26.613Z,1.07
2023-08-03T10:59:58.753Z,2.13
2023-08-03T11:02:31.893Z,1.77
2023-08-03T11:05:08.479Z,0.63
2023-08-03T11:07:36.459Z,1.70
2023-08-03T11:10:05.799Z,2.00
2023-08-03T11:12:33.281Z,0.90
2023-08-03T11:15:03.895Z,2.90
2023-08-03T11:17:33.522Z,2.17
2023-08-03T11:20:02.286Z,1.93
2023-08-03T11:22:31.007Z,3.73
2023-08-03T11:25:05.025Z,1.17
2023-08-03T11:27:33.140Z,2.73
2023-08-03T11:30:00.904Z,2.53
2023-08-03T11:32:30.303Z,1.23
2023-08-03T11:35:02.114Z,3.80
2023-08-03T11:37:33.345Z,0.83
2023-08-03T11:40:02.215Z,4.13
2023-08-03T11:42:30.175Z,1.77
2023-08-03T11:44:57.692Z,1.80
2023-08-03T11:47:25.289Z,2.30
2023-08-03T11:49:57.790Z,1.60
2023-08-03T11:52:25.163Z,1.93
2023-08-03T11:54:52.194Z,2.33
2023-08-03T11:57:40.041Z,2.87
2023-08-03T12:00:08.092Z,2.33
2023-08-03T12:02:43.396Z,3.00
2023-08-03T12:05:17.120Z,2.23
2023-08-03T12:10:24.274Z,3.33
2023-08-03T12:12:51.351Z,2.03
2023-08-03T12:15:18.409Z,5.80
2023-08-03T12:17:45.480Z,2.77
2023-08-03T12:20:12.461Z,3.23
2023-08-03T12:22:39.404Z,2.43
2023-08-03T12:25:06.664Z,2.77
2023-08-03T12:30:04.979Z,1.23
2023-08-03T12:32:33.539Z,4.80
2023-08-03T12:35:00.821Z,2.27
2023-08-03T12:37:27.757Z,2.63
2023-08-03T12:39:54.745Z,3.27
2023-08-03T12:42:22.819Z,2.60
2023-08-03T12:44:50.038Z,1.63
2023-08-03T12:47:17.007Z,3.20
2023-08-03T12:49:44.102Z,2.07
2023-08-03T12:52:11.229Z,1.87
2023-08-03T12:54:38.198Z,4.33
2023-08-03T12:57:05.251Z,2.90
2023-08-03T12:59:32.756Z,1.70
2023-08-03T13:02:00.937Z,1.83
2023-08-03T13:04:28.245Z,4.50
2023-08-03T13:06:55.161Z,1.93
2023-08-03T13:09:22.306Z,3.47
2023-08-03T13:11:49.957Z,2.97
2023-08-03T13:14:16.749Z,2.93
2023-08-03T13:16:43.995Z,5.47
2023-08-03T13:19:14.858Z,2.30
2023-08-03T13:21:41.931Z,3.80
2023-08-03T13:24:09.205Z,4.23
2023-08-03T13:26:36.122Z,4.10
2023-08-03T13:29:03.057Z,2.80
2023-08-03T13:31:30.262Z,5.07
2023-08-03T13:33:57.394Z,2.47
2023-08-03T13:36:24.348Z,1.57
2023-08-03T13:38:51.369Z,5.20
2023-08-03T13:41:19.258Z,2.80
2023-08-03T13:43:46.121Z,4.57
2023-08-03T13:46:13.286Z,2.33
2023-08-03T13:48:40.203Z,1.60
2023-08-03T13:51:07.329Z,4.87
2023-08-03T13:53:34.273Z,4.77
2023-08-03T13:56:01.250Z,2.27
2023-08-03T13:58:46.616Z,4.67
2023-08-03T14:01:15.346Z,4.93
2023-08-03T14:03:43.009Z,2.33
2023-08-03T14:21:18.542Z,3.73
2023-08-03T14:24:01.573Z,4.93
2023-08-03T14:26:29.013Z,4.40
2023-08-03T14:31:25.986Z,7.10
2023-08-03T14:33:53.247Z,4.10
2023-08-03T14:36:20.458Z,3.23
2023-08-03T14:38:47.895Z,3.50
2023-08-03T14:41:17.774Z,2.63
2023-08-03T14:43:45.636Z,7.20
2023-08-03T14:46:13.514Z,2.47
2023-08-03T14:48:40.810Z,4.30
2023-08-03T14:53:37.845Z,4.13
2023-08-03T15:01:11.168Z,3.00
2023-08-03T15:03:39.155Z,4.77
2023-08-03T15:06:24.401Z,2.43
2023-08-03T15:08:53.111Z,2.13
2023-08-03T15:11:21.829Z,3.63
2023-08-03T15:13:48.678Z,3.97
2023-08-03T15:16:29.081Z,3.70
2023-08-03T15:18:57.706Z,2.50
2023-08-03T15:21:27.971Z,2.90
2023-08-03T15:23:59.255Z,4.70
2023-08-03T15:26:33.913Z,2.77
2023-08-03T15:29:04.774Z,4.13
2023-08-03T15:31:42.898Z,2.20
2023-08-03T15:34:14.180Z,3.07
2023-08-03T15:36:46.691Z,4.10
2023-08-03T15:39:15.891Z,8.30
2023-08-03T15:41:50.097Z,2.60
2023-08-03T15:44:22.471Z,4.23
2023-08-03T15:47:13.897Z,2.97
2023-08-03T15:49:38.466Z,3.63
2023-08-03T15:52:12.559Z,3.07
2023-08-03T15:54:47.488Z,2.97
2023-08-03T15:57:18.638Z,3.23
2023-08-03T15:59:45.959Z,3.73
2023-08-03T16:02:13.429Z,6.40
2023-08-03T16:04:40.636Z,6.53
2023-08-03T16:07:07.908Z,4.80
2023-08-03T16:09:34.662Z,3.23
2023-08-03T16:12:01.734Z,2.77
2023-08-03T16:14:28.717Z,5.20
2023-08-03T16:16:55.697Z,5.33
2023-08-03T16:19:23.000Z,4.93
2023-08-03T16:21:50.036Z,4.10
2023-08-03T16:24:17.077Z,4.57
2023-08-03T16:26:45.336Z,6.03
2023-08-03T16:29:12.628Z,3.80
2023-08-03T16:31:52.907Z,2.70
2023-08-03T16:34:22.640Z,3.00
2023-08-03T16:36:54.415Z,4.20
2023-08-03T16:39:21.382Z,3.17
2023-08-03T16:41:48.948Z,3.17
2023-08-03T16:44:15.698Z,3.33
2023-08-03T16:46:43.866Z,8.90
2023-08-03T16:49:11.454Z,4.57
2023-08-03T16:51:38.527Z,2.70
2023-08-03T16:54:10.582Z,3.93
2023-08-03T16:56:37.545Z,3.60
2023-08-03T16:59:04.481Z,2.03
2023-08-03T17:01:31.514Z,4.67
2023-08-03T17:03:59.618Z,3.63
2023-08-03T17:06:26.729Z,3.80
2023-08-03T17:08:57.407Z,2.00
2023-08-03T17:11:24.560Z,2.73
2023-08-03T17:13:51.489Z,4.53
2023-08-03T17:16:18.571Z,3.73
2023-08-03T17:18:45.531Z,3.70
2023-08-03T17:21:12.661Z,1.97
2023-08-03T17:23:39.633Z,2.27
2023-08-03T17:26:06.679Z,1.47
2023-08-03T17:28:33.742Z,3.40
2023-08-03T17:31:04.823Z,4.60
2023-08-03T17:33:32.257Z,3.30
2023-08-03T17:35:59.723Z,3.30
2023-08-03T17:38:28.739Z,3.67
2023-08-03T17:40:56.382Z,3.03
2023-08-03T17:43:24.954Z,2.33
2023-08-03T17:45:52.183Z,2.17
2023-08-03T17:48:21.865Z,3.93
2023-08-03T17:50:48.813Z,2.60
2023-08-03T17:53:16.661Z,10.63
2023-08-03T17:55:43.631Z,8.33
2023-08-03T17:58:10.704Z,3.07
2023-08-03T18:00:37.793Z,3.73
2023-08-03T18:03:04.947Z,5.20
2023-08-03T18:05:32.187Z,5.43
2023-08-03T18:07:59.056Z,5.97
2023-08-03T18:10:25.916Z,8.63
2023-08-03T18:12:53.237Z,7.30
2023-08-03T18:15:20.174Z,4.87
2023-08-03T18:17:47.206Z,7.07
2023-08-03T18:20:14.327Z,5.83
2023-08-03T18:22:41.263Z,7.53
2023-08-03T18:25:08.520Z,7.00
2023-08-03T18:27:35.804Z,7.50
2023-08-03T18:30:05.864Z,9.27
2023-08-03T18:32:33.021Z,5.30
2023-08-03T18:35:00.157Z,5.73
2023-08-03T18:37:27.364Z,13.23
2023-08-03T18:39:55.462Z,12.03
2023-08-03T18:42:22.569Z,6.53
2023-08-03T18:44:49.688Z,7.70
2023-08-03T18:47:16.635Z,12.60
2023-08-03T18:49:43.588Z,6.37
2023-08-03T18:52:10.856Z,10.67
2023-08-03T18:54:37.729Z,7.60
2023-08-03T18:57:04.925Z,11.00
2023-08-03T18:59:31.764Z,9.83
2023-08-03T19:01:58.949Z,6.80
2023-08-03T19:04:26.015Z,7.13
2023-08-03T19:06:52.928Z,8.70
2023-08-03T19:09:20.006Z,8.17
2023-08-03T19:11:47.013Z,9.27
2023-08-03T19:14:13.908Z,8.87
2023-08-03T19:16:40.837Z,13.23
2023-08-03T19:19:08.193Z,10.97
2023-08-03T19:21:35.054Z,9.20
2023-08-03T19:24:02.386Z,9.73
2023-08-03T19:26:30.168Z,11.73
2023-08-03T19:28:57.325Z,13.77
2023-08-03T19:31:24.289Z,12.73
2023-08-03T19:33:51.236Z,17.47
2023-08-03T19:36:20.088Z,10.53
2023-08-03T19:38:49.230Z,10.53
2023-08-03T19:41:16.258Z,17.10
2023-08-03T19:43:43.274Z,10.80
2023-08-03T19:46:13.592Z,11.30
2023-08-03T19:48:40.667Z,12.27
2023-08-03T20:11:09.945Z,13.37
2023-08-03T20:13:56.150Z,10.47
2023-08-03T20:21:29.068Z,13.63
2023-08-03T20:23:57.872Z,11.27
2023-08-03T20:26:34.529Z,9.93
2023-08-03T20:29:05.032Z,10.00
2023-08-03T20:31:33.377Z,11.30
2023-08-03T20:34:11.444Z,15.27
2023-08-03T20:36:39.183Z,13.93
2023-08-03T20:39:17.162Z,13.40
2023-08-03T20:41:54.055Z,13.03
2023-08-03T20:49:41.322Z,12.80
2023-08-03T20:52:08.458Z,11.37
2023-08-03T20:57:05.744Z,13.00
2023-08-03T20:59:32.854Z,13.30
2023-08-03T21:01:59.859Z,15.70
2023-08-03T21:04:27.079Z,13.97
2023-08-03T21:06:54.132Z,13.40
2023-08-03T21:09:21.113Z,12.27
2023-08-03T21:11:48.098Z,13.10
2023-08-03T21:14:15.142Z,14.13
2023-08-03T21:16:42.222Z,20.17
2023-08-03T21:19:10.658Z,15.40
2023-08-03T21:21:37.638Z,15.30
2023-08-03T21:24:09.564Z,16.97
2023-08-03T21:26:39.608Z,14.67
2023-08-03T21:29:06.811Z,17.80
2023-08-03T21:31:38.389Z,14.33
2023-08-03T21:34:06.360Z,11.37
2023-08-03T21:36:33.248Z,18.47
2023-08-03T21:39:00.134Z,14.20
2023-08-03T21:41:26.841Z,15.10
2023-08-03T21:43:53.627Z,18.30
2023-08-03T21:46:20.959Z,17.93
2023-08-03T21:48:48.018Z,12.83
2023-08-03T21:51:15.830Z,13.97
2023-08-03T21:53:45.298Z,13.30
2023-08-03T21:56:17.407Z,18.50
2023-08-03T21:58:44.970Z,17.23
2023-08-03T22:01:12.618Z,14.90
2023-08-03T22:03:39.721Z,12.43
2023-08-03T22:06:06.818Z,19.97
2023-08-03T22:08:35.457Z,11.47
2023-08-03T22:11:02.459Z,15.10
2023-08-03T22:13:29.828Z,12.97
2023-08-03T22:15:56.817Z,10.27
2023-08-03T22:18:24.158Z,10.93
2023-08-03T22:20:50.998Z,11.93
2023-08-03T22:23:17.831Z,11.70
2023-08-03T22:25:44.797Z,15.23
2023-08-03T22:28:11.795Z,19.83
2023-08-03T22:30:42.038Z,14.13
2023-08-03T22:33:08.948Z,10.63
2023-08-03T22:35:35.955Z,15.50
2023-08-03T22:38:03.253Z,19.67
2023-08-03T22:40:30.345Z,12.40
2023-08-03T22:42:58.499Z,15.37
2023-08-03T22:45:25.621Z,10.20
2023-08-03T22:48:11.379Z,14.00
2023-08-03T22:50:39.907Z,18.73
2023-08-03T22:53:07.134Z,8.73
2023-08-03T22:55:33.959Z,12.90
2023-08-03T22:58:02.332Z,13.10
2023-08-03T23:00:32.616Z,9.97
2023-08-03T23:02:59.657Z,7.57
2023-08-03T23:05:26.803Z,7.90
2023-08-03T23:07:53.870Z,8.30
2023-08-03T23:10:20.895Z,15.67
2023-08-03T23:12:47.813Z,7.30
2023-08-03T23:15:16.161Z,9.17
2023-08-03T23:17:43.500Z,10.87
2023-08-03T23:20:10.874Z,9.97
2023-08-03T23:22:37.892Z,15.07
2023-08-03T23:25:05.120Z,11.70
2023-08-03T23:27:31.880Z,5.13
2023-08-03T23:29:58.680Z,8.30
2023-08-03T23:32:25.521Z,15.03
2023-08-03T23:34:52.412Z,10.67
2023-08-03T23:37:19.275Z,14.53
2023-08-03T23:39:46.128Z,10.67
2023-08-03T23:42:17.119Z,10.70
2023-08-03T23:44:44.122Z,8.07
2023-08-03T23:47:11.032Z,11.40
2023-08-03T23:49:37.895Z,11.03
2023-08-03T23:52:05.150Z,8.90
2023-08-03T23:54:32.120Z,8.70
2023-08-03T23:57:00.041Z,11.80
2023-08-03T23:59:29.121Z,6.83
